Terminal Aerodrome Forecast
Issued by NWS

Home | Current Version | Previous Version | Text Only | Print | Product List | Glossary On
Versions: 1 2 3 4 5 6 7 8 9 10 11 12 13 14 15 16
000
FTUS45 KFGZ 171700
TAFGCN
TAF
KGCN 171740Z 1718/1818 07005KT P6SM SCT060
     FM172000 VRB06KT P6SM VCSH BKN040 OVC080
      TEMPO 1720/1724 4SM TSRA OVC030CB
     FM180300 VRB05KT P6SM VCSH SCT040 OVC050=

USA.gov is the U.S. government's official web portal to all federal, state and local government web resources and services.